createdAt,value
2019-04-01T00:00:12.213Z,0
2019-04-01T00:01:13.598Z,0
2019-04-01T00:02:14.983Z,0
2019-04-01T00:03:16.364Z,0
2019-04-01T00:04:17.740Z,0
2019-04-01T00:05:19.123Z,0
2019-04-01T00:06:20.506Z,0
2019-04-01T00:07:21.885Z,0
2019-04-01T00:08:23.258Z,0
2019-04-01T00:09:24.638Z,0
2019-04-01T00:10:26.025Z,0
2019-04-01T00:11:27.419Z,0
2019-04-01T00:12:28.800Z,0
2019-04-01T00:13:30.185Z,0
2019-04-01T00:14:31.569Z,0
2019-04-01T00:15:32.953Z,0
2019-04-01T00:16:34.332Z,0
2019-04-01T00:17:35.712Z,0
2019-04-01T00:18:37.098Z,0
2019-04-01T00:19:38.490Z,0
2019-04-01T00:20:39.893Z,0
2019-04-01T00:21:44.352Z,0
2019-04-01T00:22:42.630Z,0
2019-04-01T00:23:44.557Z,0
2019-04-01T00:24:45.935Z,0
2019-04-01T00:25:47.324Z,0
2019-04-01T00:26:48.665Z,0
2019-04-01T00:27:50.072Z,0
2019-04-01T00:28:51.455Z,0
2019-04-01T00:29:52.842Z,0
2019-04-01T00:30:54.214Z,0
2019-04-01T00:31:55.588Z,0
2019-04-01T00:32:56.972Z,0
2019-04-01T00:33:58.360Z,0
2019-04-01T00:34:59.742Z,0
2019-04-01T00:36:01.125Z,0
2019-04-01T00:37:02.520Z,0
2019-04-01T00:38:03.897Z,0
2019-04-01T00:39:05.279Z,0
2019-04-01T00:40:06.671Z,0
2019-04-01T00:41:08.053Z,0
2019-04-01T00:42:09.437Z,0
2019-04-01T00:43:10.817Z,0
2019-04-01T00:44:12.199Z,0
2019-04-01T00:45:13.592Z,0
2019-04-01T00:46:14.971Z,0
2019-04-01T00:47:16.357Z,0
2019-04-01T00:48:17.749Z,0
2019-04-01T00:49:19.129Z,0
2019-04-01T00:50:20.507Z,0
2019-04-01T00:51:21.892Z,0
2019-04-01T00:52:23.267Z,0
2019-04-01T00:53:24.656Z,0
2019-04-01T00:54:26.040Z,0
2019-04-01T00:55:27.424Z,0
2019-04-01T00:56:28.800Z,0
2019-04-01T00:57:30.178Z,0
2019-04-01T00:58:31.558Z,0
2019-04-01T00:59:32.955Z,0
2019-04-01T01:00:34.333Z,0
2019-04-01T01:01:35.716Z,0
2019-04-01T01:02:37.098Z,0
2019-04-01T01:03:38.480Z,0
2019-04-01T01:04:39.871Z,0
2019-04-01T01:05:41.252Z,0
2019-04-01T01:06:42.626Z,0
2019-04-01T01:07:44.007Z,0
2019-04-01T01:08:45.385Z,0
2019-04-01T01:09:46.777Z,0
2019-04-01T01:10:48.157Z,0
2019-04-01T01:11:49.543Z,0
2019-04-01T01:12:50.923Z,0
2019-04-01T01:13:52.311Z,0
2019-04-01T01:14:53.693Z,0
2019-04-01T01:15:55.069Z,0
2019-04-01T01:16:56.449Z,0
2019-04-01T01:17:57.841Z,0
2019-04-01T01:18:59.218Z,0
2019-04-01T01:20:00.594Z,0
2019-04-01T01:21:01.980Z,0
2019-04-01T01:22:03.359Z,0
2019-04-01T01:23:04.741Z,0
2019-04-01T01:24:06.137Z,0
2019-04-01T01:25:07.506Z,0
2019-04-01T01:26:08.886Z,0
2019-04-01T01:27:10.278Z,0
2019-04-01T01:28:11.658Z,0
2019-04-01T01:29:13.045Z,0
2019-04-01T01:30:14.422Z,0
2019-04-01T01:31:15.802Z,0
2019-04-01T01:32:17.140Z,0
2019-04-01T01:33:18.524Z,0
2019-04-01T01:34:19.898Z,0
2019-04-01T01:35:21.287Z,0
2019-04-01T01:36:22.669Z,0
2019-04-01T01:37:24.055Z,0
2019-04-01T01:38:25.437Z,0
2019-04-01T01:39:26.820Z,0
2019-04-01T01:40:28.197Z,0
2019-04-01T01:41:29.581Z,0
2019-04-01T01:42:30.961Z,0
2019-04-01T01:43:32.341Z,0
2019-04-01T01:44:33.726Z,0
2019-04-01T01:45:35.107Z,0
2019-04-01T01:46:36.495Z,0
2019-04-01T01:47:37.882Z,0
2019-04-01T01:48:39.253Z,0
2019-04-01T01:49:40.635Z,0
2019-04-01T01:50:42.020Z,0
2019-04-01T01:51:43.412Z,0
2019-04-01T01:52:44.792Z,0
2019-04-01T01:53:46.182Z,0
2019-04-01T01:54:47.567Z,0
2019-04-01T01:55:48.946Z,0
2019-04-01T01:56:50.336Z,0
2019-04-01T01:57:51.716Z,0
2019-04-01T01:58:53.102Z,0
2019-04-01T01:59:54.486Z,0
2019-04-01T02:00:55.820Z,0
2019-04-01T02:01:57.211Z,0
2019-04-01T02:02:58.594Z,0
2019-04-01T02:03:59.968Z,0
2019-04-01T02:05:01.347Z,0
2019-04-01T02:06:02.735Z,0
2019-04-01T02:07:04.109Z,0
2019-04-01T02:08:05.489Z,0
2019-04-01T02:09:06.867Z,0
2019-04-01T02:10:08.269Z,0
2019-04-01T02:11:09.635Z,0
2019-04-01T02:12:11.019Z,0
2019-04-01T02:13:12.407Z,0
2019-04-01T02:14:13.751Z,0
2019-04-01T02:15:15.129Z,0
2019-04-01T02:16:16.509Z,0
2019-04-01T02:17:17.900Z,0
2019-04-01T02:18:19.279Z,0
2019-04-01T02:19:20.674Z,0
2019-04-01T02:20:22.054Z,0
2019-04-01T02:21:23.426Z,0
2019-04-01T02:22:24.804Z,0
2019-04-01T02:23:26.187Z,0
2019-04-01T02:24:27.576Z,0
2019-04-01T02:25:28.961Z,0
2019-04-01T02:26:30.344Z,0
2019-04-01T02:27:31.738Z,0
2019-04-01T02:28:33.118Z,0
2019-04-01T02:29:34.499Z,0
2019-04-01T02:30:35.885Z,0
2019-04-01T02:31:37.261Z,0
2019-04-01T02:32:38.639Z,0
2019-04-01T02:33:40.023Z,0
2019-04-01T02:34:41.406Z,0
2019-04-01T02:35:43.572Z,0
2019-04-01T02:36:44.966Z,0
2019-04-01T02:37:46.339Z,0
2019-04-01T02:38:47.724Z,0
2019-04-01T02:39:49.097Z,0
2019-04-01T02:40:50.486Z,0
2019-04-01T02:41:51.879Z,0
2019-04-01T02:42:53.254Z,0
2019-04-01T02:43:54.636Z,0
2019-04-01T02:44:56.021Z,0
2019-04-01T02:45:57.399Z,0
2019-04-01T02:46:58.742Z,0
2019-04-01T02:48:00.127Z,0
2019-04-01T02:49:01.517Z,0
2019-04-01T02:50:02.941Z,0
2019-04-01T02:51:04.294Z,0
2019-04-01T02:52:05.675Z,0
2019-04-01T02:53:07.057Z,0
2019-04-01T02:54:08.438Z,0
2019-04-01T02:55:09.827Z,0
2019-04-01T02:56:11.216Z,0
2019-04-01T02:57:12.594Z,0
2019-04-01T02:58:13.973Z,0
2019-04-01T02:59:15.366Z,0
2019-04-01T03:00:16.743Z,0
2019-04-01T03:01:18.125Z,0
2019-04-01T03:02:19.512Z,0
2019-04-01T03:03:20.890Z,0
2019-04-01T03:04:22.726Z,0
2019-04-01T03:05:24.104Z,0
2019-04-01T03:06:25.483Z,0
2019-04-01T03:07:26.865Z,0
2019-04-01T03:08:28.242Z,0
2019-04-01T03:09:29.639Z,0
2019-04-01T03:10:31.027Z,0
2019-04-01T03:11:32.412Z,0
2019-04-01T03:12:33.918Z,0
2019-04-01T03:13:35.153Z,0
2019-04-01T03:14:36.528Z,0
2019-04-01T03:15:37.915Z,0
2019-04-01T03:16:39.299Z,0
2019-04-01T03:17:40.687Z,0
2019-04-01T03:18:43.034Z,0
2019-04-01T03:19:43.407Z,0
2019-04-01T03:20:44.801Z,0
2019-04-01T03:21:46.181Z,0
2019-04-01T03:22:47.566Z,0
2019-04-01T03:23:48.953Z,0
2019-04-01T03:24:50.346Z,0
2019-04-01T03:25:51.728Z,0
2019-04-01T03:26:53.119Z,0
2019-04-01T03:27:54.503Z,0
2019-04-01T03:28:55.895Z,0
2019-04-01T03:29:57.278Z,0
2019-04-01T03:30:58.680Z,0
2019-04-01T03:32:00.084Z,0
2019-04-01T03:33:01.448Z,0
2019-04-01T03:34:02.850Z,0
2019-04-01T03:35:04.262Z,0
2019-04-01T03:36:05.617Z,0
2019-04-01T03:37:07.016Z,0
2019-04-01T03:38:08.408Z,0
2019-04-01T03:39:09.795Z,0
2019-04-01T03:40:11.135Z,0
2019-04-01T03:41:12.527Z,0
2019-04-01T03:42:13.908Z,0
2019-04-01T03:43:15.290Z,0
2019-04-01T03:44:16.683Z,0
2019-04-01T03:45:18.065Z,0
2019-04-01T03:46:19.455Z,0
2019-04-01T03:47:20.834Z,0
2019-04-01T03:48:22.216Z,0
2019-04-01T03:49:23.605Z,0
2019-04-01T03:50:25.000Z,0
2019-04-01T03:51:26.374Z,0
2019-04-01T03:52:27.764Z,0
2019-04-01T03:53:29.153Z,0
2019-04-01T03:54:30.537Z,0
2019-04-01T03:55:31.930Z,0
2019-04-01T03:56:33.321Z,0
2019-04-01T03:57:34.708Z,0
2019-04-01T03:58:36.094Z,0
2019-04-01T03:59:37.481Z,0
2019-04-01T04:00:38.866Z,0
2019-04-01T04:01:40.268Z,0
2019-04-01T04:02:41.641Z,0
2019-04-01T04:03:43.019Z,0
2019-04-01T04:04:44.408Z,0
2019-04-01T04:05:45.753Z,0
2019-04-01T04:06:47.146Z,0
2019-04-01T04:07:48.538Z,0
2019-04-01T04:08:49.927Z,0
2019-04-01T04:09:51.314Z,0
2019-04-01T04:10:52.699Z,0
2019-04-01T04:11:54.099Z,0
2019-04-01T04:12:55.487Z,0
2019-04-01T04:13:56.871Z,0
2019-04-01T04:14:58.252Z,0
2019-04-01T04:15:59.635Z,0
2019-04-01T04:17:01.013Z,0
2019-04-01T04:18:02.406Z,0
2019-04-01T04:19:03.783Z,0
2019-04-01T04:20:05.173Z,0
2019-04-01T04:21:06.560Z,0
2019-04-01T04:22:07.952Z,0
2019-04-01T04:23:09.337Z,0
2019-04-01T04:24:10.736Z,0
2019-04-01T04:25:12.907Z,0
2019-04-01T04:26:14.300Z,0
2019-04-01T04:27:15.685Z,0
2019-04-01T04:28:17.101Z,0
2019-04-01T04:29:18.493Z,0
2019-04-01T04:30:19.878Z,0
2019-04-01T04:31:21.267Z,0
2019-04-01T04:32:22.653Z,0
2019-04-01T04:33:24.044Z,0
2019-04-01T04:34:25.437Z,0
2019-04-01T04:35:26.836Z,0
2019-04-01T04:36:28.221Z,0
2019-04-01T04:37:29.614Z,0
2019-04-01T04:38:30.999Z,0
2019-04-01T04:39:32.400Z,0
2019-04-01T04:40:33.781Z,5
2019-04-01T04:41:35.166Z,5
2019-04-01T04:42:36.582Z,5
2019-04-01T04:43:37.962Z,5
2019-04-01T04:44:39.368Z,5
2019-04-01T04:45:40.768Z,5
2019-04-01T04:46:42.254Z,5
2019-04-01T04:47:43.514Z,5
2019-04-01T04:48:44.903Z,5
2019-04-01T04:49:46.296Z,10
2019-04-01T04:50:47.693Z,10
2019-04-01T04:51:49.075Z,10
2019-04-01T04:52:50.469Z,10
2019-04-01T04:53:51.851Z,10
2019-04-01T04:54:53.251Z,10
2019-04-01T04:55:54.669Z,10
2019-04-01T04:56:56.041Z,15
2019-04-01T04:57:57.439Z,15
2019-04-01T04:58:58.833Z,15
2019-04-01T05:00:00.341Z,15
2019-04-01T05:01:01.571Z,15
2019-04-01T05:02:02.965Z,15
2019-04-01T05:03:04.358Z,20
2019-04-01T05:04:05.769Z,20
2019-04-01T05:05:07.160Z,20
2019-04-01T05:06:08.551Z,20
2019-04-01T05:07:09.929Z,20
2019-04-01T05:08:11.316Z,25
2019-04-01T05:09:12.706Z,25
2019-04-01T05:10:14.125Z,25
2019-04-01T05:11:15.532Z,25
2019-04-01T05:12:16.918Z,25
2019-04-01T05:13:18.304Z,30
2019-04-01T05:14:19.692Z,30
2019-04-01T05:15:21.082Z,30
2019-04-01T05:16:22.498Z,35
2019-04-01T05:17:23.888Z,35
2019-04-01T05:18:25.280Z,35
2019-04-01T05:19:26.699Z,35
2019-04-01T05:20:28.104Z,35
2019-04-01T05:21:29.504Z,35
2019-04-01T05:22:30.892Z,40
2019-04-01T05:23:32.274Z,40
2019-04-01T05:24:33.674Z,40
2019-04-01T05:25:35.075Z,45
2019-04-01T05:26:36.516Z,45
2019-04-01T05:27:37.905Z,45
2019-04-01T05:28:39.299Z,45
2019-04-01T05:29:40.696Z,45
2019-04-01T05:30:42.087Z,45
2019-04-01T05:31:43.493Z,45
2019-04-01T05:32:44.898Z,50
2019-04-01T05:33:55.221Z,50
2019-04-01T05:34:47.631Z,50
2019-04-01T05:35:49.017Z,55
2019-04-01T05:36:50.471Z,55
2019-04-01T05:37:51.752Z,55
2019-04-01T05:38:53.141Z,55
2019-04-01T05:39:54.523Z,55
2019-04-01T05:40:55.902Z,55
2019-04-01T05:41:57.292Z,60
2019-04-01T05:42:58.683Z,60
2019-04-01T05:44:02.257Z,60
2019-04-01T05:45:01.409Z,60
2019-04-01T05:46:02.794Z,60
2019-04-01T05:47:04.187Z,65
2019-04-01T05:48:05.564Z,65
2019-04-01T05:49:06.948Z,65
2019-04-01T05:50:08.330Z,65
2019-04-01T05:51:09.720Z,70
2019-04-01T05:52:11.769Z,70
2019-04-01T05:53:13.146Z,70
2019-04-01T05:54:14.541Z,75
2019-04-01T05:55:15.922Z,75
2019-04-01T05:56:17.423Z,80
2019-04-01T05:57:18.833Z,80
2019-04-01T05:58:20.227Z,85
2019-04-01T05:59:21.624Z,85
2019-04-01T06:00:23.004Z,90
2019-04-01T06:01:24.393Z,85
2019-04-01T06:02:25.785Z,85
2019-04-01T06:03:27.176Z,85
2019-04-01T06:04:28.556Z,90
2019-04-01T06:05:29.945Z,90
2019-04-01T06:06:31.333Z,90
2019-04-01T06:07:32.724Z,95
2019-04-01T06:08:34.105Z,100
2019-04-01T06:09:35.454Z,100
2019-04-01T06:10:36.835Z,105
2019-04-01T06:11:38.222Z,105
2019-04-01T06:12:39.612Z,105
2019-04-01T06:13:41.000Z,105
2019-04-01T06:14:42.390Z,110
2019-04-01T06:15:43.774Z,120
2019-04-01T06:16:45.163Z,140
2019-04-01T06:17:46.552Z,155
2019-04-01T06:18:47.944Z,165
2019-04-01T06:19:49.330Z,155
2019-04-01T06:20:50.716Z,165
2019-04-01T06:21:52.102Z,190
2019-04-01T06:22:53.496Z,185
2019-04-01T06:23:54.883Z,255
2019-04-01T06:24:56.266Z,375
2019-04-01T06:25:57.653Z,425
2019-04-01T06:26:59.042Z,495
2019-04-01T06:28:00.440Z,460
2019-04-01T06:29:01.824Z,395
2019-04-01T06:30:03.217Z,305
2019-04-01T06:31:04.607Z,195
2019-04-01T06:32:05.996Z,180
2019-04-01T06:33:07.390Z,180
2019-04-01T06:34:09.435Z,180
2019-04-01T06:35:10.891Z,190
2019-04-01T06:36:12.269Z,200
2019-04-01T06:37:13.668Z,220
2019-04-01T06:38:15.073Z,240
2019-04-01T06:39:16.451Z,255
2019-04-01T06:40:17.845Z,270
2019-04-01T06:41:19.235Z,280
2019-04-01T06:42:20.638Z,285
2019-04-01T06:43:22.034Z,320
2019-04-01T06:44:23.441Z,660
2019-04-01T06:45:24.870Z,915
2019-04-01T06:46:26.266Z,940
2019-04-01T06:47:27.662Z,950
2019-04-01T06:48:29.052Z,975
2019-04-01T06:49:30.450Z,1015
2019-04-01T06:50:31.860Z,1040
2019-04-01T06:51:33.258Z,1035
2019-04-01T06:52:34.661Z,1015
2019-04-01T06:53:36.119Z,1015
2019-04-01T06:54:37.520Z,995
2019-04-01T06:55:38.944Z,995
2019-04-01T06:56:40.343Z,1015
2019-04-01T06:57:41.740Z,1055
2019-04-01T06:58:43.157Z,1100
2019-04-01T06:59:44.565Z,1130
2019-04-01T07:00:45.984Z,1015
2019-04-01T07:01:47.395Z,1055
2019-04-01T07:02:48.799Z,1075
2019-04-01T07:03:50.200Z,1100
2019-04-01T07:04:51.601Z,1130
2019-04-01T07:05:53.002Z,1160
2019-04-01T07:06:54.415Z,1195
2019-04-01T07:07:55.816Z,1225
2019-04-01T07:08:57.231Z,1245
2019-04-01T07:09:58.717Z,1265
2019-04-01T07:11:00.196Z,1285
2019-04-01T07:12:01.488Z,1310
2019-04-01T07:13:02.898Z,1335
2019-04-01T07:14:04.307Z,1340
2019-04-01T07:15:05.752Z,1340
2019-04-01T07:16:15.424Z,1335
2019-04-01T07:17:08.533Z,1325
2019-04-01T07:18:09.932Z,1285
2019-04-01T07:19:11.341Z,1245
2019-04-01T07:20:12.749Z,1185
2019-04-01T07:21:14.176Z,1150
2019-04-01T07:22:15.597Z,1110
2019-04-01T07:23:17.019Z,1085
2019-04-01T07:24:18.439Z,1080
2019-04-01T07:25:19.857Z,1100
2019-04-01T07:26:21.269Z,1145
2019-04-01T07:27:22.710Z,1185
2019-04-01T07:28:24.130Z,1245
2019-04-01T07:29:25.525Z,1315
2019-04-01T07:30:26.931Z,1370
2019-04-01T07:31:28.337Z,1425
2019-04-01T07:32:29.803Z,1440
2019-04-01T07:33:31.159Z,1440
2019-04-01T07:34:32.565Z,1415
2019-04-01T07:35:33.975Z,1395
2019-04-01T07:36:35.386Z,1350
2019-04-01T07:37:36.806Z,1295
2019-04-01T07:38:38.208Z,1260
2019-04-01T07:39:39.620Z,1260
2019-04-01T07:40:41.035Z,1295
2019-04-01T07:41:42.449Z,1335
2019-04-01T07:42:43.855Z,1400
2019-04-01T07:43:45.268Z,1180
2019-04-01T07:44:46.685Z,1470
2019-04-01T07:45:48.098Z,1490
2019-04-01T07:46:49.599Z,1455
2019-04-01T07:47:51.786Z,1460
2019-04-01T07:48:52.251Z,1435
2019-04-01T07:49:53.620Z,1430
2019-04-01T07:50:55.027Z,1415
2019-04-01T07:51:56.433Z,1340
2019-04-01T07:52:57.848Z,1320
2019-04-01T07:53:59.251Z,1255
2019-04-01T07:55:00.662Z,1155
2019-04-01T07:56:02.709Z,1140
2019-04-01T07:57:03.458Z,1115
2019-04-01T07:58:04.873Z,1140
2019-04-01T07:59:06.278Z,1150
2019-04-01T08:00:07.919Z,1160
2019-04-01T08:01:09.338Z,1190
2019-04-01T08:02:10.746Z,1240
2019-04-01T08:03:12.155Z,1325
2019-04-01T08:04:13.572Z,1390
2019-04-01T08:05:14.979Z,1430
2019-04-01T08:06:16.389Z,1435
2019-04-01T08:07:17.800Z,1430
2019-04-01T08:08:19.209Z,1400
2019-04-01T08:09:20.630Z,1395
2019-04-01T08:10:22.036Z,1395
2019-04-01T08:11:23.444Z,1425
2019-04-01T08:12:27.730Z,510
2019-04-01T08:13:26.232Z,1545
2019-04-01T08:14:27.646Z,855
2019-04-01T08:15:29.044Z,1005
2019-04-01T08:16:30.460Z,1575
2019-04-01T08:17:31.864Z,1500
2019-04-01T08:18:34.073Z,1515
2019-04-01T08:19:34.649Z,1455
2019-04-01T08:20:36.057Z,235
2019-04-01T08:21:37.433Z,230
2019-04-01T08:22:38.846Z,240
2019-04-01T08:23:40.258Z,230
2019-04-01T08:24:41.661Z,630
2019-04-01T08:25:43.138Z,280
2019-04-01T08:26:44.525Z,220
2019-04-01T08:27:45.933Z,950
2019-04-01T08:28:47.333Z,1485
2019-04-01T08:29:48.737Z,385
2019-04-01T08:30:50.145Z,210
2019-04-01T08:31:51.551Z,945
2019-04-01T08:32:52.954Z,1425
2019-04-01T08:33:54.362Z,625
2019-04-01T08:34:55.781Z,215
2019-04-01T08:35:57.182Z,1430
2019-04-01T08:36:58.580Z,205
2019-04-01T08:38:00.005Z,230
2019-04-01T08:39:01.406Z,230
2019-04-01T08:40:02.811Z,1025
2019-04-01T08:41:04.230Z,450
2019-04-01T08:42:05.745Z,1575
2019-04-01T08:43:07.039Z,1615
2019-04-01T08:44:08.455Z,1610
2019-04-01T08:45:09.860Z,270
2019-04-01T08:46:11.342Z,430
2019-04-01T08:47:12.760Z,225
2019-04-01T08:48:14.179Z,220
2019-04-01T08:49:15.672Z,230
2019-04-01T08:50:17.077Z,320
2019-04-01T08:51:18.487Z,950
2019-04-01T08:52:19.919Z,880
2019-04-01T08:53:21.317Z,395
2019-04-01T08:54:22.730Z,510
2019-04-01T08:55:24.137Z,230
2019-04-01T08:56:25.537Z,225
2019-04-01T08:57:26.952Z,230
2019-04-01T08:58:28.351Z,345
2019-04-01T08:59:29.758Z,730
2019-04-01T09:00:31.150Z,710
2019-04-01T09:01:35.410Z,1280
2019-04-01T09:02:33.932Z,1350
2019-04-01T09:03:35.338Z,1420
2019-04-01T09:04:36.744Z,1500
2019-04-01T09:05:38.162Z,1580
2019-04-01T09:06:39.574Z,1665
2019-04-01T09:07:41.024Z,1770
2019-04-01T09:08:42.454Z,1815
2019-04-01T09:09:43.868Z,1830
2019-04-01T09:10:45.271Z,1805
2019-04-01T09:11:46.700Z,1760
2019-04-01T09:12:48.130Z,1700
2019-04-01T09:13:49.540Z,1640
2019-04-01T09:14:50.951Z,1580
2019-04-01T09:15:52.362Z,1505
2019-04-01T09:16:53.772Z,1675
2019-04-01T09:17:55.189Z,1695
2019-04-01T09:18:56.687Z,1725
2019-04-01T09:19:58.099Z,1760
2019-04-01T09:20:59.549Z,1805
2019-04-01T09:22:00.962Z,1840
2019-04-01T09:23:02.368Z,1865
2019-04-01T09:24:03.808Z,1875
2019-04-01T09:25:05.218Z,1885
2019-04-01T09:26:06.680Z,1910
2019-04-01T09:27:08.110Z,1895
2019-04-01T09:28:09.527Z,1880
2019-04-01T09:29:11.828Z,1855
2019-04-01T09:30:13.253Z,1810
2019-04-01T09:31:14.702Z,1740
2019-04-01T09:32:16.115Z,1645
2019-04-01T09:33:17.552Z,1560
2019-04-01T09:34:19.019Z,1510
2019-04-01T09:35:20.434Z,1490
2019-04-01T09:36:21.847Z,1475
2019-04-01T09:37:23.261Z,1515
2019-04-01T09:38:24.677Z,1600
2019-04-01T09:39:26.101Z,1720
2019-04-01T09:40:27.539Z,1835
2019-04-01T09:41:28.955Z,1895
2019-04-01T09:42:30.375Z,1950
2019-04-01T09:43:31.797Z,1950
2019-04-01T09:44:37.065Z,1895
2019-04-01T09:45:34.602Z,1825
2019-04-01T09:46:36.002Z,1760
2019-04-01T09:47:37.422Z,1725
2019-04-01T09:48:38.833Z,1700
2019-04-01T09:49:40.257Z,1655
2019-04-01T09:50:41.677Z,1615
2019-04-01T09:51:48.970Z,1615
2019-04-01T09:52:44.475Z,1660
2019-04-01T09:53:45.880Z,1695
2019-04-01T09:54:47.294Z,1715
2019-04-01T09:55:48.719Z,1725
2019-04-01T09:56:50.139Z,1730
2019-04-01T09:57:51.553Z,1750
2019-04-01T09:58:52.968Z,1750
2019-04-01T09:59:54.481Z,1735
2019-04-01T10:00:55.783Z,1750
2019-04-01T10:01:57.200Z,1720
2019-04-01T10:02:58.614Z,1660
2019-04-01T10:04:00.035Z,1575
2019-04-01T10:05:01.456Z,1490
2019-04-01T10:06:02.885Z,1430
2019-04-01T10:07:04.377Z,1420
2019-04-01T10:08:05.704Z,1435
2019-04-01T10:09:07.121Z,1465
2019-04-01T10:10:08.550Z,1485
2019-04-01T10:11:12.482Z,1485
2019-04-01T10:12:11.367Z,1475
2019-04-01T10:13:12.807Z,1470
2019-04-01T10:14:14.227Z,1475
2019-04-01T10:15:15.670Z,1495
2019-04-01T10:16:17.095Z,1505
2019-04-01T10:17:18.540Z,1485
2019-04-01T10:18:19.936Z,1455
2019-04-01T10:19:21.367Z,1435
2019-04-01T10:20:22.811Z,1400
2019-04-01T10:21:24.252Z,1375
2019-04-01T10:22:25.660Z,1360
2019-04-01T10:23:27.079Z,1360
2019-04-01T10:24:28.523Z,1350
2019-04-01T10:25:29.996Z,1350
2019-04-01T10:26:31.450Z,1375
2019-04-01T10:27:32.893Z,1405
2019-04-01T10:28:34.320Z,1415
2019-04-01T10:29:35.758Z,1430
2019-04-01T10:30:37.177Z,1445
2019-04-01T10:31:38.621Z,1460
2019-04-01T10:32:40.052Z,1500
2019-04-01T10:33:41.503Z,1550
2019-04-01T10:34:42.913Z,1560
2019-04-01T10:35:44.335Z,1105
2019-04-01T10:36:45.743Z,325
2019-04-01T10:37:47.162Z,235
2019-04-01T10:38:48.576Z,225
2019-04-01T10:39:49.997Z,215
2019-04-01T10:40:51.407Z,210
2019-04-01T10:41:52.823Z,205
2019-04-01T10:42:54.231Z,200
2019-04-01T10:43:55.641Z,195
2019-04-01T10:44:57.054Z,195
2019-04-01T10:45:58.471Z,205
2019-04-01T10:46:59.928Z,215
2019-04-01T10:48:01.320Z,220
2019-04-01T10:49:02.696Z,260
2019-04-01T10:50:04.759Z,960
2019-04-01T10:51:06.054Z,1595
2019-04-01T10:52:07.480Z,1605
2019-04-01T10:53:08.907Z,1595
2019-04-01T10:54:10.336Z,1570
2019-04-01T10:55:11.753Z,1545
2019-04-01T10:56:13.175Z,1520
2019-04-01T10:57:14.555Z,1485
2019-04-01T10:58:15.927Z,1440
2019-04-01T10:59:17.258Z,1405
2019-04-01T11:00:18.598Z,1370
2019-04-01T11:01:20.049Z,1300
2019-04-01T11:02:21.436Z,1245
2019-04-01T11:03:22.820Z,1215
2019-04-01T11:04:24.802Z,1220
2019-04-01T11:05:26.172Z,1255
2019-04-01T11:06:27.642Z,1325
2019-04-01T11:07:29.071Z,1395
2019-04-01T11:08:30.425Z,1485
2019-04-01T11:09:38.242Z,1455
2019-04-01T11:10:33.207Z,1075
2019-04-01T11:11:34.621Z,575
2019-04-01T11:12:36.031Z,265
2019-04-01T11:13:37.437Z,255
2019-04-01T11:14:38.855Z,255
2019-04-01T11:15:40.267Z,250
2019-04-01T11:16:41.670Z,260
2019-04-01T11:17:43.913Z,550
2019-04-01T11:18:44.466Z,1020
2019-04-01T11:19:45.891Z,1455
2019-04-01T11:20:47.313Z,1625
2019-04-01T11:21:48.728Z,1650
2019-04-01T11:22:50.149Z,1650
2019-04-01T11:23:51.544Z,1610
2019-04-01T11:24:52.978Z,1555
2019-04-01T11:25:54.390Z,1495
2019-04-01T11:26:55.800Z,1450
2019-04-01T11:27:57.206Z,1420
2019-04-01T11:28:58.620Z,1410
2019-04-01T11:30:00.027Z,1395
2019-04-01T11:31:01.454Z,1380
2019-04-01T11:32:02.839Z,1295
2019-04-01T11:33:07.318Z,1415
2019-04-01T11:34:05.632Z,1135
2019-04-01T11:35:07.087Z,1455
2019-04-01T11:36:08.536Z,1385
2019-04-01T11:37:09.912Z,1310
2019-04-01T11:38:11.337Z,1225
2019-04-01T11:39:12.767Z,830
2019-04-01T11:40:14.170Z,1265
2019-04-01T11:41:15.637Z,1435
2019-04-01T11:42:16.923Z,1170
2019-04-01T11:43:18.342Z,305
2019-04-01T11:44:19.764Z,465
2019-04-01T11:45:22.482Z,185
2019-04-01T11:46:23.224Z,235
2019-04-01T11:47:23.954Z,235
2019-04-01T11:48:25.323Z,225
2019-04-01T11:49:26.778Z,175
2019-04-01T11:50:28.228Z,235
2019-04-01T11:51:32.963Z,220
2019-04-01T11:52:30.966Z,215
2019-04-01T11:53:32.370Z,215
2019-04-01T11:54:33.776Z,185
2019-04-01T11:55:35.181Z,175
2019-04-01T11:56:36.590Z,175
2019-04-01T11:57:38.011Z,170
2019-04-01T11:58:39.414Z,185
2019-04-01T11:59:40.829Z,190
2019-04-01T12:00:42.228Z,235
2019-04-01T12:01:43.639Z,240
2019-04-01T12:02:46.149Z,235
2019-04-01T12:03:46.405Z,225
2019-04-01T12:04:47.802Z,240
2019-04-01T12:05:49.222Z,210
2019-04-01T12:06:50.618Z,240
2019-04-01T12:07:52.008Z,245
2019-04-01T12:08:53.412Z,225
2019-04-01T12:09:55.296Z,225
2019-04-01T12:10:56.179Z,190
2019-04-01T12:11:57.589Z,170
2019-04-01T12:12:59.970Z,195
2019-04-01T12:14:00.365Z,240
2019-04-01T12:15:01.782Z,240
2019-04-01T12:16:03.169Z,210
2019-04-01T12:17:04.571Z,195
2019-04-01T12:18:05.975Z,200
2019-04-01T12:19:07.383Z,175
2019-04-01T12:20:09.543Z,170
2019-04-01T12:21:10.146Z,175
2019-04-01T12:22:11.606Z,175
2019-04-01T12:23:13.719Z,195
2019-04-01T12:24:14.302Z,195
2019-04-01T12:25:15.704Z,215
2019-04-01T12:26:17.616Z,185
2019-04-01T12:27:18.478Z,170
2019-04-01T12:28:19.878Z,165
2019-04-01T12:29:21.286Z,175
2019-04-01T12:30:22.687Z,195
2019-04-01T12:31:24.095Z,200
2019-04-01T12:32:25.499Z,190
2019-04-01T12:33:26.918Z,170
2019-04-01T12:34:28.339Z,165
2019-04-01T12:35:29.975Z,160
2019-04-01T12:36:31.411Z,155
2019-04-01T12:37:32.828Z,150
2019-04-01T12:38:34.245Z,145
2019-04-01T12:39:35.653Z,140
2019-04-01T12:40:37.484Z,140
2019-04-01T12:41:40.257Z,140
2019-04-01T12:42:41.707Z,135
2019-04-01T12:43:43.135Z,135
2019-04-01T12:44:44.545Z,135
2019-04-01T12:45:45.948Z,130
2019-04-01T12:46:47.354Z,125
2019-04-01T12:47:48.774Z,120
2019-04-01T12:48:50.186Z,120
2019-04-01T12:49:51.624Z,115
2019-04-01T12:50:53.041Z,110
2019-04-01T12:51:58.108Z,115
2019-04-01T12:52:55.814Z,110
2019-04-01T12:53:57.216Z,110
2019-04-01T12:55:00.936Z,110
2019-04-01T12:56:00.047Z,105
2019-04-01T12:57:01.447Z,105
2019-04-01T12:58:02.863Z,105
2019-04-01T12:59:04.254Z,100
2019-04-01T13:00:05.709Z,100
2019-04-01T13:01:07.121Z,100
2019-04-01T13:02:08.532Z,100
2019-04-01T13:03:09.936Z,100
2019-04-01T13:04:11.337Z,95
2019-04-01T13:05:12.747Z,95
2019-04-01T13:06:14.137Z,95
2019-04-01T13:07:15.539Z,95
2019-04-01T13:08:16.943Z,95
2019-04-01T13:09:18.379Z,90
2019-04-01T13:10:20.312Z,90
2019-04-01T13:11:21.139Z,90
2019-04-01T13:12:22.544Z,85
2019-04-01T13:13:23.962Z,85
2019-04-01T13:14:25.364Z,80
2019-04-01T13:15:26.768Z,80
2019-04-01T13:16:28.227Z,80
2019-04-01T13:17:29.666Z,80
2019-04-01T13:18:31.083Z,85
2019-04-01T13:19:32.481Z,85
2019-04-01T13:20:38.147Z,85
2019-04-01T13:21:35.305Z,80
2019-04-01T13:22:37.972Z,80
2019-04-01T13:23:38.072Z,80
2019-04-01T13:24:39.471Z,80
2019-04-01T13:25:40.873Z,80
2019-04-01T13:26:42.278Z,80
2019-04-01T13:27:43.688Z,75
2019-04-01T13:28:45.087Z,75
2019-04-01T13:29:46.502Z,75
2019-04-01T13:30:47.894Z,75
2019-04-01T13:31:50.253Z,75
2019-04-01T13:32:50.780Z,75
2019-04-01T13:33:52.083Z,75
2019-04-01T13:34:53.498Z,75
2019-04-01T13:35:54.892Z,75
2019-04-01T13:36:56.292Z,75
2019-04-01T13:37:57.998Z,75
2019-04-01T13:38:59.085Z,70
2019-04-01T13:40:02.676Z,70
2019-04-01T13:41:01.857Z,70
2019-04-01T13:42:03.295Z,70
2019-04-01T13:43:05.627Z,70
2019-04-01T13:44:08.958Z,70
2019-04-01T13:45:08.386Z,65
2019-04-01T13:46:09.788Z,65
2019-04-01T13:47:11.183Z,65
2019-04-01T13:48:12.575Z,65
2019-04-01T13:49:13.976Z,65
2019-04-01T13:50:16.484Z,65
2019-04-01T13:51:16.770Z,65
2019-04-01T13:52:18.208Z,65
2019-04-01T13:53:19.619Z,65
2019-04-01T13:54:21.039Z,65
2019-04-01T13:55:22.420Z,60
2019-04-01T13:56:23.835Z,60
2019-04-01T13:57:25.244Z,60
2019-04-01T13:58:27.388Z,60
2019-04-01T13:59:28.785Z,60
2019-04-01T14:00:30.215Z,60
2019-04-01T14:01:31.619Z,60
2019-04-01T14:02:33.055Z,60
2019-04-01T14:03:34.454Z,60
2019-04-01T14:04:35.843Z,55
2019-04-01T14:05:37.249Z,55
2019-04-01T14:06:38.672Z,55
2019-04-01T14:07:40.807Z,55
2019-04-01T14:08:42.193Z,55
2019-04-01T14:09:43.640Z,55
2019-04-01T14:10:45.034Z,55
2019-04-01T14:11:46.433Z,55
2019-04-01T14:12:47.843Z,55
2019-04-01T14:13:49.228Z,55
2019-04-01T14:14:50.627Z,55
2019-04-01T14:15:52.063Z,55
2019-04-01T14:16:53.663Z,55
2019-04-01T14:17:55.077Z,55
2019-04-01T14:18:56.476Z,55
2019-04-01T14:19:57.878Z,55
2019-04-01T14:20:59.298Z,50
2019-04-01T14:22:00.782Z,50
2019-04-01T14:23:02.243Z,50